Time;durP1;ratioP1;P1;durP2;ratioP2;P2;SDS_P1;SDS_P2;PMS_P1;PMS_P2;Temp;Humidity;BMP_temperature;BMP_pressure;BME280_temperature;BME280_humidity;BME280_pressure;Samples;Min_cycle;Max_cycle;Signal;HPM_P1;HPM_P2
2021/03/23 00:01:08;;;;;;;94.27;40.03;;;;;;;;;;5073748;28;20206;-85
2021/03/23 00:03:37;;;;;;;70.03;34.27;;;;;;;;;;5073944;28;20171;-85
2021/03/23 00:06:03;;;;;;;66.80;32.53;;;;;;;;;;5073232;28;20185;-86
2021/03/23 00:08:35;;;;;;;56.57;27.73;;;;;;;;;;5073237;28;20167;-86
2021/03/23 00:11:03;;;;;;;65.90;32.70;;;;;;;;;;5073380;28;20624;-86
2021/03/23 00:13:29;;;;;;;51.40;28.47;;;;;;;;;;5073568;28;20189;-86
2021/03/23 00:15:54;;;;;;;35.20;18.53;;;;;;;;;;5072675;28;20171;-86
2021/03/23 00:18:20;;;;;;;55.80;29.23;;;;;;;;;;5074193;28;20167;-85
2021/03/23 00:20:46;;;;;;;58.43;31.47;;;;;;;;;;5073848;28;20203;-85
2021/03/23 00:23:12;;;;;;;54.10;28.87;;;;;;;;;;5074317;28;20224;-86
2021/03/23 00:25:37;;;;;;;44.50;23.90;;;;;;;;;;5073849;28;20172;-85
2021/03/23 00:28:03;;;;;;;38.90;22.17;;;;;;;;;;5073771;28;20233;-85
2021/03/23 00:30:29;;;;;;;43.57;24.57;;;;;;;;;;5073441;28;20182;-86
2021/03/23 00:32:54;;;;;;;41.13;23.40;;;;;;;;;;5072464;28;20175;-85
2021/03/23 00:35:19;;;;;;;40.00;22.73;;;;;;;;;;5073126;28;20167;-85
2021/03/23 00:37:50;;;;;;;28.03;16.00;;;;;;;;;;5077049;28;20620;-85
2021/03/23 00:40:16;;;;;;;28.00;15.73;;;;;;;;;;5076078;28;20210;-85
2021/03/23 00:42:42;;;;;;;29.70;17.50;;;;;;;;;;5077633;28;20238;-85
2021/03/23 00:45:08;;;;;;;35.63;20.87;;;;;;;;;;5077484;28;20167;-85
2021/03/23 00:47:34;;;;;;;30.67;18.33;;;;;;;;;;5077740;28;20178;-85
2021/03/23 00:49:59;;;;;;;34.73;19.03;;;;;;;;;;5076837;28;20191;-85
2021/03/23 00:52:24;;;;;;;35.90;20.43;;;;;;;;;;5077242;28;20194;-85
2021/03/23 00:54:50;;;;;;;32.00;18.47;;;;;;;;;;5077242;28;20167;-85
2021/03/23 00:57:15;;;;;;;35.23;19.27;;;;;;;;;;5077087;28;20174;-85
2021/03/23 00:59:41;;;;;;;33.03;19.80;;;;;;;;;;5075387;28;20231;-86
2021/03/23 01:02:06;;;;;;;34.30;18.37;;;;;;;;;;5077354;28;20179;-86
2021/03/23 01:04:31;;;;;;;34.53;18.97;;;;;;;;;;5076260;28;20178;-87
2021/03/23 01:06:56;;;;;;;29.40;18.03;;;;;;;;;;5077022;28;20182;-87
2021/03/23 01:09:22;;;;;;;29.00;18.70;;;;;;;;;;5076776;28;20182;-87
2021/03/23 01:11:47;;;;;;;32.00;18.80;;;;;;;;;;5076584;28;20163;-86
2021/03/23 01:14:13;;;;;;;34.03;18.70;;;;;;;;;;5076627;28;20633;-87
2021/03/23 01:16:38;;;;;;;31.90;18.87;;;;;;;;;;5076930;28;20258;-86
2021/03/23 01:19:03;;;;;;;28.43;17.40;;;;;;;;;;5076792;28;20167;-87
2021/03/23 01:21:29;;;;;;;30.77;20.20;;;;;;;;;;5076814;28;20171;-87
2021/03/23 01:23:54;;;;;;;29.83;18.60;;;;;;;;;;5076104;28;20175;-87
2021/03/23 01:26:19;;;;;;;29.87;17.17;;;;;;;;;;5076686;28;20217;-87
2021/03/23 01:28:45;;;;;;;33.30;19.13;;;;;;;;;;5076160;28;20201;-87
2021/03/23 01:31:10;;;;;;;30.67;17.57;;;;;;;;;;5076130;28;20225;-87
2021/03/23 01:33:35;;;;;;;27.27;17.00;;;;;;;;;;5076096;28;20448;-87
2021/03/23 01:36:01;;;;;;;35.17;20.40;;;;;;;;;;5076538;28;20625;-87
2021/03/23 01:38:26;;;;;;;31.63;21.00;;;;;;;;;;5076533;28;20583;-87
2021/03/23 01:40:51;;;;;;;29.47;17.93;;;;;;;;;;5076101;28;20293;-87
2021/03/23 01:43:24;;;;;;;35.43;18.17;;;;;;;;;;5076166;28;20553;-87
2021/03/23 01:45:50;;;;;;;30.60;18.60;;;;;;;;;;5076341;28;20628;-87
2021/03/23 01:48:17;;;;;;;30.20;18.23;;;;;;;;;;5075544;28;20171;-87
2021/03/23 01:50:45;;;;;;;31.80;17.53;;;;;;;;;;5076419;28;20545;-87
2021/03/23 01:53:18;;;;;;;35.07;19.23;;;;;;;;;;5076373;28;20182;-87
2021/03/23 01:55:43;;;;;;;34.63;18.63;;;;;;;;;;5076235;28;20528;-86
2021/03/23 01:58:09;;;;;;;30.27;17.93;;;;;;;;;;5075606;28;20305;-86
2021/03/23 02:00:35;;;;;;;37.10;18.67;;;;;;;;;;5076106;28;20683;-86
2021/03/23 02:03:02;;;;;;;30.30;18.80;;;;;;;;;;5075518;28;20171;-87
2021/03/23 02:05:29;;;;;;;34.37;18.60;;;;;;;;;;5074486;28;20175;-88
2021/03/23 02:07:55;;;;;;;31.37;19.27;;;;;;;;;;5076339;28;20232;-88
2021/03/23 02:10:21;;;;;;;31.33;18.10;;;;;;;;;;5075636;28;20177;-88
2021/03/23 02:12:47;;;;;;;32.00;18.63;;;;;;;;;;5075637;28;20267;-87
2021/03/23 02:15:12;;;;;;;27.83;17.83;;;;;;;;;;5075542;28;20167;-88
2021/03/23 02:17:38;;;;;;;31.63;17.80;;;;;;;;;;5076140;28;20171;-87
2021/03/23 02:20:09;;;;;;;37.60;19.80;;;;;;;;;;5075652;28;20219;-88
2021/03/23 02:22:38;;;;;;;33.17;18.10;;;;;;;;;;5075167;28;20626;-88
2021/03/23 02:25:05;;;;;;;35.63;19.87;;;;;;;;;;5075676;28;20171;-86
2021/03/23 02:27:30;;;;;;;32.90;19.10;;;;;;;;;;5075020;28;20171;-86
2021/03/23 02:29:57;;;;;;;35.33;18.97;;;;;;;;;;5075293;28;20175;-86
2021/03/23 02:32:22;;;;;;;36.33;19.67;;;;;;;;;;5075565;28;20178;-86
2021/03/23 02:34:48;;;;;;;37.77;20.03;;;;;;;;;;5074917;28;20525;-86
2021/03/23 02:37:13;;;;;;;35.60;19.67;;;;;;;;;;5074857;28;20178;-86
2021/03/23 02:39:39;;;;;;;31.50;17.97;;;;;;;;;;5074959;28;20230;-86
2021/03/23 02:42:05;;;;;;;33.20;18.57;;;;;;;;;;5075267;28;20179;-86
2021/03/23 02:44:40;;;;;;;31.50;18.80;;;;;;;;;;5075240;28;20171;-86
2021/03/23 02:47:06;;;;;;;31.77;18.40;;;;;;;;;;5075136;28;20609;-86
2021/03/23 02:49:32;;;;;;;30.57;18.37;;;;;;;;;;5074991;28;20277;-86
2021/03/23 02:51:57;;;;;;;26.93;17.00;;;;;;;;;;5074562;28;20194;-86
2021/03/23 02:54:23;;;;;;;30.40;17.50;;;;;;;;;;5074807;28;20174;-86
2021/03/23 02:56:48;;;;;;;29.20;17.37;;;;;;;;;;5074782;28;20586;-86
2021/03/23 02:59:13;;;;;;;28.67;17.07;;;;;;;;;;5074315;28;20230;-87
2021/03/23 03:01:39;;;;;;;130.27;51.80;;;;;;;;;;5074197;28;20551;-87
2021/03/23 03:04:05;;;;;;;114.97;46.07;;;;;;;;;;5074938;28;20522;-87
2021/03/23 03:06:30;;;;;;;51.63;25.07;;;;;;;;;;5074644;28;20175;-86
2021/03/23 03:08:55;;;;;;;33.80;18.70;;;;;;;;;;5074453;28;20182;-87
2021/03/23 03:11:21;;;;;;;30.77;18.03;;;;;;;;;;5075044;28;20178;-87
2021/03/23 03:13:46;;;;;;;26.37;16.27;;;;;;;;;;5074638;28;20175;-87
2021/03/23 03:16:11;;;;;;;33.90;17.30;;;;;;;;;;5074373;28;20171;-87
2021/03/23 03:18:37;;;;;;;27.60;16.50;;;;;;;;;;5074463;28;20167;-87
2021/03/23 03:21:02;;;;;;;28.10;15.43;;;;;;;;;;5074150;28;20211;-87
2021/03/23 03:23:28;;;;;;;27.77;16.30;;;;;;;;;;5074517;28;20171;-87
2021/03/23 03:25:54;;;;;;;25.87;14.90;;;;;;;;;;5074360;28;20171;-86
2021/03/23 03:28:20;;;;;;;25.57;15.03;;;;;;;;;;5074421;28;20688;-86
2021/03/23 03:30:45;;;;;;;25.30;14.47;;;;;;;;;;5074240;28;20171;-86
2021/03/23 03:33:12;;;;;;;24.77;14.57;;;;;;;;;;5074735;28;20174;-86
2021/03/23 03:35:39;;;;;;;24.43;13.90;;;;;;;;;;5074079;28;20225;-85
2021/03/23 03:38:04;;;;;;;22.73;14.43;;;;;;;;;;5074251;28;20250;-85
2021/03/23 03:40:34;;;;;;;23.07;13.40;;;;;;;;;;5074409;28;20290;-85
2021/03/23 03:43:00;;;;;;;23.83;13.77;;;;;;;;;;5073716;28;20175;-85
2021/03/23 03:45:26;;;;;;;22.87;13.73;;;;;;;;;;5074185;28;20630;-86
2021/03/23 03:47:55;;;;;;;22.63;13.60;;;;;;;;;;5074436;28;20513;-86
2021/03/23 03:50:21;;;;;;;26.13;14.43;;;;;;;;;;5073761;28;20239;-86
2021/03/23 03:52:47;;;;;;;20.50;13.23;;;;;;;;;;5073797;28;20182;-86
2021/03/23 03:55:13;;;;;;;24.17;14.43;;;;;;;;;;5074044;28;20575;-86
2021/03/23 03:57:38;;;;;;;26.00;14.20;;;;;;;;;;5074014;28;20233;-86
2021/03/23 04:00:04;;;;;;;24.57;14.20;;;;;;;;;;5074275;28;20223;-86
2021/03/23 04:02:29;;;;;;;33.17;18.60;;;;;;;;;;5073804;28;20228;-87
2021/03/23 04:04:54;;;;;;;31.60;15.63;;;;;;;;;;5073702;28;20205;-87
2021/03/23 04:07:20;;;;;;;24.63;13.80;;;;;;;;;;5074018;28;20282;-87
2021/03/23 04:09:45;;;;;;;24.63;13.33;;;;;;;;;;5073512;28;20692;-87
2021/03/23 04:12:10;;;;;;;21.83;13.93;;;;;;;;;;5072143;28;20700;-86
2021/03/23 04:14:36;;;;;;;21.87;12.97;;;;;;;;;;5073950;28;20258;-87
2021/03/23 04:17:01;;;;;;;27.30;15.03;;;;;;;;;;5073958;28;20585;-87
2021/03/23 04:19:27;;;;;;;28.53;15.37;;;;;;;;;;5073775;28;20657;-86
2021/03/23 04:21:52;;;;;;;29.63;15.23;;;;;;;;;;5073785;28;20174;-86
2021/03/23 04:24:18;;;;;;;26.00;13.73;;;;;;;;;;5073483;28;20174;-87
2021/03/23 04:26:43;;;;;;;24.23;12.93;;;;;;;;;;5073915;28;20175;-87
2021/03/23 04:29:08;;;;;;;23.57;12.87;;;;;;;;;;5073722;28;20565;-87
2021/03/23 04:31:35;;;;;;;24.27;13.80;;;;;;;;;;5073657;28;20174;-86
2021/03/23 04:34:01;;;;;;;30.37;14.30;;;;;;;;;;5072305;28;20614;-86
2021/03/23 04:36:26;;;;;;;26.37;13.20;;;;;;;;;;5073752;28;20185;-86
2021/03/23 04:38:52;;;;;;;24.80;13.77;;;;;;;;;;5073190;28;20167;-86
2021/03/23 04:41:17;;;;;;;21.07;12.60;;;;;;;;;;5073068;28;20211;-87
2021/03/23 04:43:44;;;;;;;22.17;12.97;;;;;;;;;;5073628;28;20167;-87
2021/03/23 04:46:11;;;;;;;20.60;12.13;;;;;;;;;;5073356;28;20221;-86
2021/03/23 04:48:36;;;;;;;22.17;12.70;;;;;;;;;;5073590;28;20625;-86
2021/03/23 04:51:03;;;;;;;22.03;12.63;;;;;;;;;;5073094;28;20195;-86
2021/03/23 04:53:31;;;;;;;20.87;12.40;;;;;;;;;;5073200;28;20171;-86
2021/03/23 04:55:57;;;;;;;22.10;12.60;;;;;;;;;;5073191;28;20254;-86
2021/03/23 04:58:23;;;;;;;22.27;13.23;;;;;;;;;;5073165;28;20206;-86
2021/03/23 05:00:48;;;;;;;25.13;12.53;;;;;;;;;;5072950;28;20198;-86
2021/03/23 05:03:17;;;;;;;22.67;12.63;;;;;;;;;;5073176;28;20160;-86
2021/03/23 05:05:42;;;;;;;31.53;15.17;;;;;;;;;;5073109;28;20633;-86
2021/03/23 05:08:07;;;;;;;31.90;17.80;;;;;;;;;;5073059;28;20198;-86
2021/03/23 05:10:33;;;;;;;63.60;33.13;;;;;;;;;;5073046;28;20172;-86
2021/03/23 05:12:58;;;;;;;35.63;18.83;;;;;;;;;;5073355;28;20170;-86
2021/03/23 05:15:23;;;;;;;24.20;12.97;;;;;;;;;;5073006;28;20637;-86
2021/03/23 05:17:49;;;;;;;19.83;12.57;;;;;;;;;;5072764;28;20163;-86
2021/03/23 05:20:14;;;;;;;22.07;12.70;;;;;;;;;;5072883;28;20199;-86
2021/03/23 05:22:39;;;;;;;24.10;12.40;;;;;;;;;;5072949;28;20163;-86
2021/03/23 05:28:08;;;;;;;20.73;11.50;;;;;;;;;;5076393;28;20239;-87
2021/03/23 05:30:33;;;;;;;20.20;12.00;;;;;;;;;;5074940;28;20507;-86
2021/03/23 05:32:59;;;;;;;22.77;12.47;;;;;;;;;;5076638;28;20170;-87
2021/03/23 05:35:24;;;;;;;21.70;12.97;;;;;;;;;;5076925;28;20548;-86
2021/03/23 05:37:50;;;;;;;24.07;12.77;;;;;;;;;;5076437;28;20522;-86
2021/03/23 05:40:38;;;;;;;19.40;12.33;;;;;;;;;;5076017;28;20199;-86
2021/03/23 05:43:22;;;;;;;20.90;12.43;;;;;;;;;;5070650;28;20203;-87
2021/03/23 05:45:52;;;;;;;39.73;26.07;;;;;;;;;;5077196;28;20209;-87
2021/03/23 05:48:23;;;;;;;27.37;15.80;;;;;;;;;;5076071;28;20172;-87
2021/03/23 05:51:00;;;;;;;24.47;15.17;;;;;;;;;;5076119;28;20198;-87
2021/03/23 05:53:34;;;;;;;58.67;38.33;;;;;;;;;;5076499;28;20242;-86
2021/03/23 05:56:00;;;;;;;27.30;16.90;;;;;;;;;;5076434;28;20154;-87
2021/03/23 05:58:27;;;;;;;23.43;13.43;;;;;;;;;;5075840;28;20257;-86
2021/03/23 06:00:55;;;;;;;26.43;17.23;;;;;;;;;;5076334;28;20201;-87
2021/03/23 06:03:20;;;;;;;24.60;14.00;;;;;;;;;;5076042;28;20167;-87
2021/03/23 06:05:47;;;;;;;21.23;12.67;;;;;;;;;;5075975;28;20175;-87
2021/03/23 06:08:18;;;;;;;65.80;48.23;;;;;;;;;;5076456;28;20171;-86
2021/03/23 06:10:44;;;;;;;35.93;23.23;;;;;;;;;;5076472;28;20159;-86
2021/03/23 06:13:18;;;;;;;39.37;28.00;;;;;;;;;;5075825;28;20195;-87
2021/03/23 06:16:02;;;;;;;126.30;78.50;;;;;;;;;;5075753;28;20171;-87
2021/03/23 06:18:30;;;;;;;71.23;39.43;;;;;;;;;;5076014;28;20624;-87
2021/03/23 06:21:00;;;;;;;39.30;24.80;;;;;;;;;;5075521;28;20199;-87
2021/03/23 06:23:43;;;;;;;32.20;22.17;;;;;;;;;;5075846;28;20191;-88
2021/03/23 06:26:11;;;;;;;41.77;28.13;;;;;;;;;;5075227;28;20178;-87
2021/03/23 06:28:55;;;;;;;78.77;49.70;;;;;;;;;;5075617;28;20288;-87
2021/03/23 06:31:36;;;;;;;137.20;80.10;;;;;;;;;;5075821;28;20171;-87
2021/03/23 06:34:02;;;;;;;125.97;75.17;;;;;;;;;;5075524;28;20171;-87
2021/03/23 06:36:29;;;;;;;35.13;21.57;;;;;;;;;;5075510;28;20618;-87
2021/03/23 06:38:54;;;;;;;45.90;27.90;;;;;;;;;;5075276;28;20167;-87
2021/03/23 06:41:27;;;;;;;35.90;22.27;;;;;;;;;;5075159;28;20261;-87
2021/03/23 06:43:54;;;;;;;26.33;16.83;;;;;;;;;;5075095;28;20677;-86
2021/03/23 06:46:22;;;;;;;36.50;25.47;;;;;;;;;;5074973;28;20203;-86
2021/03/23 06:49:00;;;;;;;18.60;11.43;;;;;;;;;;5075576;28;20178;-88
2021/03/23 06:51:26;;;;;;;37.47;26.07;;;;;;;;;;5075026;28;20205;-86
2021/03/23 06:53:51;;;;;;;24.17;16.67;;;;;;;;;;5075287;28;20612;-86
2021/03/23 06:56:21;;;;;;;20.10;12.80;;;;;;;;;;5074940;28;20174;-86
2021/03/23 06:58:47;;;;;;;46.77;27.93;;;;;;;;;;5074735;28;20227;-86
2021/03/23 07:01:23;;;;;;;21.47;13.97;;;;;;;;;;5077307;28;20275;-86
2021/03/23 07:03:50;;;;;;;18.40;12.57;;;;;;;;;;5094565;28;20177;-86
2021/03/23 07:06:17;;;;;;;15.70;10.77;;;;;;;;;;5071940;28;20187;-86
2021/03/23 07:08:42;;;;;;;19.80;11.13;;;;;;;;;;5074637;28;20211;-86
2021/03/23 07:11:09;;;;;;;15.43;10.60;;;;;;;;;;5074048;28;20256;-86
2021/03/23 07:13:36;;;;;;;15.13;10.30;;;;;;;;;;5074211;28;20685;-86
2021/03/23 07:16:14;;;;;;;17.37;10.10;;;;;;;;;;5073496;28;20183;-86
2021/03/23 07:18:42;;;;;;;16.33;10.53;;;;;;;;;;5074339;28;20202;-86
2021/03/23 07:21:22;;;;;;;16.57;10.20;;;;;;;;;;5073677;28;20207;-86
2021/03/23 07:24:02;;;;;;;16.37;10.20;;;;;;;;;;5074045;28;20171;-86
2021/03/23 07:26:29;;;;;;;15.60;10.03;;;;;;;;;;5073972;28;20183;-87
2021/03/23 07:29:14;;;;;;;44.93;19.33;;;;;;;;;;5074167;28;20520;-86
2021/03/23 07:31:48;;;;;;;16.43;10.33;;;;;;;;;;5061898;28;20180;-86
2021/03/23 07:34:21;;;;;;;15.33;10.17;;;;;;;;;;5052804;28;20176;-87
2021/03/23 07:36:49;;;;;;;15.20;9.57;;;;;;;;;;5073852;28;20171;-85
2021/03/23 07:39:21;;;;;;;15.43;9.63;;;;;;;;;;5074023;28;20172;-86
2021/03/23 07:41:53;;;;;;;15.33;9.60;;;;;;;;;;5073180;28;20175;-86
2021/03/23 07:44:37;;;;;;;16.20;9.57;;;;;;;;;;5074027;28;20156;-85
2021/03/23 07:47:05;;;;;;;15.20;10.03;;;;;;;;;;5073680;28;20195;-86
2021/03/23 07:49:43;;;;;;;17.03;9.73;;;;;;;;;;5069392;28;20217;-85
2021/03/23 07:52:26;;;;;;;14.53;9.47;;;;;;;;;;5071776;28;20171;-86
2021/03/23 07:54:56;;;;;;;13.80;9.87;;;;;;;;;;5074041;28;20213;-86
2021/03/23 07:57:21;;;;;;;13.50;9.50;;;;;;;;;;5073553;28;20198;-86
2021/03/23 07:59:56;;;;;;;16.40;10.23;;;;;;;;;;5055474;28;20717;-85
2021/03/23 08:02:41;;;;;;;14.63;9.40;;;;;;;;;;5053560;28;20610;-85
2021/03/23 08:05:10;;;;;;;28.17;15.73;;;;;;;;;;5055074;28;20191;-86
2021/03/23 08:07:38;;;;;;;16.13;10.93;;;;;;;;;;5070809;28;20175;-86
2021/03/23 08:10:09;;;;;;;13.77;9.77;;;;;;;;;;5073126;28;20179;-85
2021/03/23 08:12:47;;;;;;;16.17;14.17;;;;;;;;;;5070388;28;20630;-86
2021/03/23 08:15:24;;;;;;;23.87;13.90;;;;;;;;;;5072952;28;20190;-85
2021/03/23 08:17:53;;;;;;;15.83;13.10;;;;;;;;;;5073714;28;20676;-85
2021/03/23 08:20:30;;;;;;;16.67;13.37;;;;;;;;;;5073688;28;20203;-86
2021/03/23 08:23:22;;;;;;;17.37;11.47;;;;;;;;;;5073755;28;20177;-85
2021/03/23 08:26:01;;;;;;;16.57;12.50;;;;;;;;;;5073659;28;20171;-85
2021/03/23 08:28:38;;;;;;;14.07;9.27;;;;;;;;;;5073673;28;20205;-85
2021/03/23 08:31:06;;;;;;;16.20;11.20;;;;;;;;;;5073605;28;20167;-85
2021/03/23 08:33:40;;;;;;;20.60;14.10;;;;;;;;;;5073546;28;20167;-85
2021/03/23 08:36:20;;;;;;;12.37;9.90;;;;;;;;;;5073453;28;20170;-85
2021/03/23 08:39:14;;;;;;;14.73;10.53;;;;;;;;;;5073618;28;20221;-85
2021/03/23 08:41:52;;;;;;;22.00;13.77;;;;;;;;;;5059801;28;20203;-85
2021/03/23 08:44:24;;;;;;;11.73;9.20;;;;;;;;;;5073190;28;20183;-85
2021/03/23 08:46:50;;;;;;;12.43;8.20;;;;;;;;;;5070053;28;20180;-85
2021/03/23 08:49:19;;;;;;;13.07;9.50;;;;;;;;;;5068860;28;20236;-86
2021/03/23 08:51:46;;;;;;;17.87;12.83;;;;;;;;;;5087762;28;20681;-85
2021/03/23 08:54:11;;;;;;;13.20;10.80;;;;;;;;;;5093522;28;20554;-84
2021/03/23 08:56:48;;;;;;;24.00;13.80;;;;;;;;;;5093535;28;20177;-84
2021/03/23 08:59:31;;;;;;;15.33;9.73;;;;;;;;;;5095882;28;20218;-84
2021/03/23 09:02:00;;;;;;;18.50;10.97;;;;;;;;;;5096865;28;20265;-84
2021/03/23 09:04:28;;;;;;;12.70;8.67;;;;;;;;;;5096900;28;20175;-85
2021/03/23 09:06:55;;;;;;;13.73;9.90;;;;;;;;;;5095914;28;20240;-84
2021/03/23 09:09:33;;;;;;;21.93;15.40;;;;;;;;;;5097229;28;20166;-85
2021/03/23 09:12:01;;;;;;;18.67;11.80;;;;;;;;;;5095785;28;20170;-86
2021/03/23 09:14:27;;;;;;;16.27;10.60;;;;;;;;;;5097228;28;20174;-85
2021/03/23 09:16:59;;;;;;;12.43;8.87;;;;;;;;;;5095837;28;20182;-85
2021/03/23 09:19:44;;;;;;;18.10;12.13;;;;;;;;;;5088108;28;20262;-86
2021/03/23 09:22:10;;;;;;;14.70;10.27;;;;;;;;;;5077489;28;20179;-85
2021/03/23 09:24:40;;;;;;;42.60;18.20;;;;;;;;;;5080512;28;20176;-82
2021/03/23 09:27:13;;;;;;;31.13;14.67;;;;;;;;;;5080940;28;20641;-83
2021/03/23 09:29:40;;;;;;;23.53;12.13;;;;;;;;;;5070790;28;20224;-83
2021/03/23 09:32:08;;;;;;;23.90;12.40;;;;;;;;;;5077556;28;20167;-83
2021/03/23 09:34:52;;;;;;;24.73;12.60;;;;;;;;;;5077160;28;20186;-83
2021/03/23 09:37:39;;;;;;;16.47;10.63;;;;;;;;;;5078790;28;20168;-83
2021/03/23 09:40:16;;;;;;;16.83;10.73;;;;;;;;;;5075999;28;20229;-83
2021/03/23 09:42:43;;;;;;;11.97;7.77;;;;;;;;;;5076138;28;20177;-83
2021/03/23 09:45:28;;;;;;;14.97;9.70;;;;;;;;;;5077049;28;20194;-83
2021/03/23 09:48:12;;;;;;;27.97;24.97;;;;;;;;;;5077201;28;20171;-83
2021/03/23 09:50:40;;;;;;;19.93;11.73;;;;;;;;;;5076298;28;20274;-84
2021/03/23 09:53:09;;;;;;;22.50;12.53;;;;;;;;;;5058643;28;20198;-83
2021/03/23 09:55:36;;;;;;;16.13;9.80;;;;;;;;;;5075296;28;20261;-83
2021/03/23 09:58:02;;;;;;;17.77;9.97;;;;;;;;;;5074881;28;20182;-84
2021/03/23 10:00:29;;;;;;;13.90;9.20;;;;;;;;;;5074446;28;20230;-83
2021/03/23 10:02:54;;;;;;;18.10;9.27;;;;;;;;;;5075269;28;20621;-84
2021/03/23 10:05:25;;;;;;;13.03;8.00;;;;;;;;;;5072587;28;20202;-83
2021/03/23 10:07:52;;;;;;;13.83;8.90;;;;;;;;;;5075551;28;20255;-83
2021/03/23 10:10:31;;;;;;;14.73;10.03;;;;;;;;;;5073616;28;20248;-84
2021/03/23 10:12:58;;;;;;;11.90;9.00;;;;;;;;;;5073759;28;20179;-83
2021/03/23 10:15:31;;;;;;;13.03;8.93;;;;;;;;;;5074111;28;20691;-82
2021/03/23 10:18:15;;;;;;;15.70;9.20;;;;;;;;;;5073982;28;20537;-81
2021/03/23 10:20:40;;;;;;;11.33;8.27;;;;;;;;;;5073716;28;20203;-81
2021/03/23 10:23:06;;;;;;;11.33;7.43;;;;;;;;;;5074244;28;20171;-81
2021/03/23 10:25:32;;;;;;;10.50;7.13;;;;;;;;;;5072465;28;20175;-81
2021/03/23 10:28:01;;;;;;;15.60;9.43;;;;;;;;;;5069480;28;20187;-81
2021/03/23 10:30:26;;;;;;;12.70;9.07;;;;;;;;;;5073893;28;20175;-82
2021/03/23 10:32:53;;;;;;;14.70;9.67;;;;;;;;;;5076752;28;20190;-82
2021/03/23 10:35:47;;;;;;;15.37;9.83;;;;;;;;;;5094696;28;20201;-82
2021/03/23 10:38:17;;;;;;;16.83;10.00;;;;;;;;;;5093851;28;20178;-82
2021/03/23 10:40:43;;;;;;;11.67;8.40;;;;;;;;;;5093823;28;20711;-82
2021/03/23 10:43:28;;;;;;;22.83;12.27;;;;;;;;;;5093810;28;20162;-82
2021/03/23 10:45:53;;;;;;;20.17;9.83;;;;;;;;;;5092756;28;20632;-82
2021/03/23 10:48:24;;;;;;;19.67;10.97;;;;;;;;;;5094754;28;20162;-82
2021/03/23 10:51:10;;;;;;;15.27;9.20;;;;;;;;;;5094763;28;20281;-82
2021/03/23 10:53:35;;;;;;;15.30;9.93;;;;;;;;;;5094768;28;20224;-82
2021/03/23 10:56:01;;;;;;;12.17;8.97;;;;;;;;;;5095282;28;20162;-82
2021/03/23 10:58:31;;;;;;;13.97;9.10;;;;;;;;;;5095011;28;20230;-83
2021/03/23 11:01:13;;;;;;;21.77;10.90;;;;;;;;;;5095036;28;20235;-81
2021/03/23 11:03:42;;;;;;;12.90;8.70;;;;;;;;;;5094760;28;20609;-81
2021/03/23 11:06:24;;;;;;;17.00;10.30;;;;;;;;;;5094141;28;20848;-82
2021/03/23 11:08:49;;;;;;;12.97;8.70;;;;;;;;;;5091211;28;20585;-82
2021/03/23 11:11:15;;;;;;;14.53;9.60;;;;;;;;;;5092527;28;20177;-82
2021/03/23 11:13:40;;;;;;;15.60;10.40;;;;;;;;;;5095091;28;20517;-82
2021/03/23 11:16:07;;;;;;;11.13;8.17;;;;;;;;;;5076533;28;20613;-82
2021/03/23 11:18:36;;;;;;;16.10;9.80;;;;;;;;;;5072341;28;20187;-82
2021/03/23 11:21:03;;;;;;;10.27;8.63;;;;;;;;;;5070564;28;20214;-81
2021/03/23 11:23:31;;;;;;;11.63;8.40;;;;;;;;;;5072427;28;20182;-82
2021/03/23 11:25:57;;;;;;;14.20;10.10;;;;;;;;;;5072388;28;20183;-82
2021/03/23 11:28:23;;;;;;;11.07;8.53;;;;;;;;;;5072511;28;20233;-82
2021/03/23 11:30:48;;;;;;;14.77;9.00;;;;;;;;;;5072442;28;20179;-81
2021/03/23 11:33:14;;;;;;;11.80;8.33;;;;;;;;;;5072976;28;20171;-81
2021/03/23 11:35:44;;;;;;;12.57;8.33;;;;;;;;;;5085208;28;20171;-82
2021/03/23 11:38:09;;;;;;;16.80;10.03;;;;;;;;;;5092694;28;20181;-81
2021/03/23 11:40:34;;;;;;;12.00;9.17;;;;;;;;;;5093594;28;20202;-81
2021/03/23 11:43:00;;;;;;;14.37;11.57;;;;;;;;;;5094335;28;20176;-82
2021/03/23 11:45:35;;;;;;;13.00;8.73;;;;;;;;;;5077403;28;20190;-82
2021/03/23 11:48:03;;;;;;;8.43;7.50;;;;;;;;;;5074027;28;20185;-83
2021/03/23 11:50:30;;;;;;;10.57;7.97;;;;;;;;;;5072777;28;20199;-82
2021/03/23 11:52:56;;;;;;;14.87;8.47;;;;;;;;;;5074169;28;20169;-82
2021/03/23 11:55:23;;;;;;;10.87;7.83;;;;;;;;;;5072487;28;20190;-82
2021/03/23 11:57:50;;;;;;;10.53;8.80;;;;;;;;;;5071980;28;20171;-82
2021/03/23 12:00:16;;;;;;;10.77;7.53;;;;;;;;;;5078243;28;20765;-82
2021/03/23 12:02:42;;;;;;;11.43;9.27;;;;;;;;;;5080042;28;20175;-82
2021/03/23 12:05:08;;;;;;;13.80;9.50;;;;;;;;;;5072687;28;20221;-81
2021/03/23 12:08:00;;;;;;;16.63;11.73;;;;;;;;;;5073415;28;20185;-82
2021/03/23 12:10:38;;;;;;;13.60;10.80;;;;;;;;;;5070103;28;20218;-81
2021/03/23 12:13:26;;;;;;;12.80;9.30;;;;;;;;;;5073305;28;20186;-81
2021/03/23 12:15:58;;;;;;;20.83;16.07;;;;;;;;;;5065315;28;20182;-81
2021/03/23 12:18:24;;;;;;;22.33;12.80;;;;;;;;;;5073947;28;20270;-81
2021/03/23 12:20:55;;;;;;;28.90;16.57;;;;;;;;;;5071917;28;20282;-81
2021/03/23 12:23:22;;;;;;;14.23;10.47;;;;;;;;;;5071819;28;20167;-82
2021/03/23 12:25:51;;;;;;;13.83;11.67;;;;;;;;;;5071849;28;20657;-82
2021/03/23 12:28:16;;;;;;;15.10;10.23;;;;;;;;;;5071756;28;20171;-82
2021/03/23 12:30:42;;;;;;;28.13;13.07;;;;;;;;;;5071494;28;20179;-82
2021/03/23 12:33:07;;;;;;;15.87;13.80;;;;;;;;;;5073973;28;20175;-82
2021/03/23 12:35:33;;;;;;;9.50;7.37;;;;;;;;;;5075493;28;20660;-82
2021/03/23 12:38:01;;;;;;;20.33;15.83;;;;;;;;;;5075386;28;20171;-82
2021/03/23 12:40:27;;;;;;;24.37;14.50;;;;;;;;;;5075142;28;20262;-83
2021/03/23 12:42:54;;;;;;;11.87;9.00;;;;;;;;;;5075432;28;20262;-83
2021/03/23 12:45:30;;;;;;;24.03;13.33;;;;;;;;;;5075289;28;20175;-82
2021/03/23 12:47:56;;;;;;;17.63;12.07;;;;;;;;;;5075174;28;20265;-82
2021/03/23 12:50:22;;;;;;;17.13;12.37;;;;;;;;;;5075052;28;20277;-81
2021/03/23 12:52:48;;;;;;;17.63;12.20;;;;;;;;;;5075107;28;20626;-82
2021/03/23 12:55:22;;;;;;;20.13;13.50;;;;;;;;;;5075170;28;20205;-82
2021/03/23 12:57:47;;;;;;;22.87;15.87;;;;;;;;;;5075145;28;20179;-83
2021/03/23 13:00:22;;;;;;;15.77;11.43;;;;;;;;;;5074714;28;20616;-83
2021/03/23 13:02:48;;;;;;;10.07;8.97;;;;;;;;;;5075175;28;20261;-82
2021/03/23 13:05:13;;;;;;;8.50;6.23;;;;;;;;;;5057423;28;20263;-82
2021/03/23 13:07:39;;;;;;;10.07;7.57;;;;;;;;;;5055208;28;20691;-82
2021/03/23 13:10:07;;;;;;;8.43;6.40;;;;;;;;;;5085788;28;20179;-83
2021/03/23 13:12:32;;;;;;;5.67;4.70;;;;;;;;;;5094118;28;20183;-82
2021/03/23 13:14:57;;;;;;;7.57;6.17;;;;;;;;;;5094681;28;20181;-82
2021/03/23 13:17:24;;;;;;;7.83;5.80;;;;;;;;;;5095148;28;20166;-82
2021/03/23 13:19:50;;;;;;;9.47;6.40;;;;;;;;;;5095077;28;20263;-83
2021/03/23 13:22:16;;;;;;;13.00;8.87;;;;;;;;;;5093699;28;20202;-82
2021/03/23 13:24:46;;;;;;;8.03;6.30;;;;;;;;;;5081834;28;20183;-83
2021/03/23 13:27:20;;;;;;;9.30;7.00;;;;;;;;;;5082807;28;20333;-83
2021/03/23 13:29:46;;;;;;;10.17;7.07;;;;;;;;;;5074948;28;20218;-83
2021/03/23 13:32:12;;;;;;;13.43;8.17;;;;;;;;;;5074693;28;20167;-83
2021/03/23 13:34:38;;;;;;;14.43;9.67;;;;;;;;;;5074530;28;20210;-82
2021/03/23 13:37:05;;;;;;;15.03;10.30;;;;;;;;;;5071957;28;20179;-82
2021/03/23 13:39:34;;;;;;;7.50;5.90;;;;;;;;;;5066595;28;20692;-83
2021/03/23 13:42:06;;;;;;;14.13;10.37;;;;;;;;;;5067261;28;20289;-83
2021/03/23 13:44:37;;;;;;;11.53;6.70;;;;;;;;;;5065379;28;20155;-83
2021/03/23 13:47:02;;;;;;;10.97;7.50;;;;;;;;;;5067677;28;20172;-83
2021/03/23 13:49:28;;;;;;;10.27;8.00;;;;;;;;;;5066180;28;20866;-82
2021/03/23 13:51:53;;;;;;;13.07;9.80;;;;;;;;;;5071192;28;20289;-82
2021/03/23 13:54:19;;;;;;;15.40;11.47;;;;;;;;;;5067337;28;20221;-82
2021/03/23 13:56:44;;;;;;;12.53;9.00;;;;;;;;;;5066067;28;20214;-81
2021/03/23 13:59:20;;;;;;;19.67;11.30;;;;;;;;;;5066817;28;20241;-81
2021/03/23 14:01:46;;;;;;;13.07;8.73;;;;;;;;;;5074771;28;20205;-81
2021/03/23 14:04:11;;;;;;;14.07;9.40;;;;;;;;;;5075676;28;20168;-81
2021/03/23 14:06:37;;;;;;;12.93;7.50;;;;;;;;;;5075705;28;20175;-81
2021/03/23 14:09:04;;;;;;;14.27;9.50;;;;;;;;;;5075687;28;20179;-82
2021/03/23 14:11:31;;;;;;;17.97;11.27;;;;;;;;;;5086622;28;20178;-82
2021/03/23 14:13:56;;;;;;;18.60;11.20;;;;;;;;;;5073206;28;20175;-82
2021/03/23 14:16:22;;;;;;;16.17;9.93;;;;;;;;;;5069498;28;20507;-82
2021/03/23 14:18:48;;;;;;;23.33;13.97;;;;;;;;;;5065786;28;20206;-82
2021/03/23 14:21:16;;;;;;;15.60;9.33;;;;;;;;;;5065215;28;20273;-82
2021/03/23 14:23:45;;;;;;;23.03;13.83;;;;;;;;;;5063887;28;20178;-82
2021/03/23 14:26:11;;;;;;;15.07;10.80;;;;;;;;;;5061979;28;20175;-82
2021/03/23 14:28:38;;;;;;;25.17;17.80;;;;;;;;;;5074751;28;20646;-82
2021/03/23 14:31:06;;;;;;;19.53;15.20;;;;;;;;;;5075628;28;20201;-83
2021/03/23 14:33:31;;;;;;;17.50;12.70;;;;;;;;;;5075244;28;20225;-82